Longueuil, Canada
Current Conditions -  °F | °C
As of 6:00 PM on Thursday 18 Dec 2014 (Local Time) from CYHU Reporting Station
Overcast Overcast  
Wind Chill: 23°   Ceiling: 3000
Heat Index: 32°   Visibility: 9mi
Dew Point: 27°   Wind: 12mph
Humidity: 80%   Direction: 290°WNW
Pressure: 29.91"   Gusts: NA
Location:  45.54°N, 73.49°W
Report Text: CYHU 182300Z AUTO 29010KT 9SM BKN030 OVC038 M00/M03 A2991 RMK SLP130
Loading
Personal Weather Stations






























Interactive Weather Map New forecast layout! Learn more

10-Day Weather Forecast

Advertisements
Track Severe Weather on mobile